Time,TemperatureF,DewpointF,PressureIn,WindDirection,WindDirectionDegrees,WindSpeedMPH,WindSpeedGustMPH,Humidity,HourlyPrecipIn,Conditions,Clouds,dailyrainin,SoftwareType,DateUTC
2013-05-10 00:00:00,68.9,55.3,29.92,East,85,0.0,17.0,62,0.00,,,0.01,Wunderground v.1.13,2013-05-10 04:00:00,
2013-05-10 00:05:00,68.8,55.7,29.92,East,83,0.0,17.0,63,0.00,,,0.00,Wunderground v.1.13,2013-05-10 04:05:00,
2013-05-10 00:10:00,68.6,55.5,29.92,East,85,0.0,17.0,63,0.00,,,0.00,Wunderground v.1.13,2013-05-10 04:10:00,
2013-05-10 00:15:00,68.4,55.7,29.91,East,85,0.0,17.0,64,0.00,,,0.00,Wunderground v.1.13,2013-05-10 04:15:00,
2013-05-10 00:20:00,68.4,55.7,29.91,East,88,0.0,17.0,64,0.00,,,0.00,Wunderground v.1.13,2013-05-10 04:20:00,
2013-05-10 00:30:00,68.3,55.6,29.91,East,92,0.0,17.0,64,0.00,,,0.00,Wunderground v.1.13,2013-05-10 04:30:00,
2013-05-10 00:35:00,68.4,55.7,29.91,ESE,103,0.0,17.0,64,0.00,,,0.00,Wunderground v.1.13,2013-05-10 04:35:00,
2013-05-10 00:40:00,68.4,55.3,29.91,East,83,0.0,17.0,63,0.00,,,0.00,Wunderground v.1.13,2013-05-10 04:40:00,
2013-05-10 00:45:00,68.6,55.5,29.91,ENE,78,0.0,17.0,63,0.00,,,0.00,Wunderground v.1.13,2013-05-10 04:45:00,
2013-05-10 00:50:00,68.8,55.2,29.91,East,96,1.0,17.0,62,0.00,,,0.00,Wunderground v.1.13,2013-05-10 04:50:00,
2013-05-10 00:55:00,69.1,55.5,29.91,East,97,1.0,17.0,62,0.00,,,0.00,Wunderground v.1.13,2013-05-10 04:55:00,
2013-05-10 01:00:00,69.3,55.3,29.91,East,93,1.0,17.0,61,0.00,,,0.00,Wunderground v.1.13,2013-05-10 05:00:00,
2013-05-10 01:05:00,69.4,55.4,29.91,East,88,1.0,17.0,61,0.00,,,0.00,Wunderground v.1.13,2013-05-10 05:05:00,
2013-05-10 01:10:00,69.6,55.6,29.91,ESE,116,1.0,17.0,61,0.00,,,0.00,Wunderground v.1.13,2013-05-10 05:10:00,
2013-05-10 01:15:00,69.6,55.6,29.90,East,96,2.0,2.0,61,0.00,,,0.00,Wunderground v.1.13,2013-05-10 05:15:00,
2013-05-10 01:20:00,69.6,55.6,29.90,ESE,104,2.0,2.0,61,0.00,,,0.00,Wunderground v.1.13,2013-05-10 05:20:00,
2013-05-10 01:30:00,69.6,55.6,29.90,NE,47,1.0,17.0,61,0.00,,,0.00,Wunderground v.1.13,2013-05-10 05:30:00,
2013-05-10 01:35:00,69.6,55.6,29.90,ESE,102,2.0,17.0,61,0.00,,,0.00,Wunderground v.1.13,2013-05-10 05:35:00,
2013-05-10 01:40:00,69.4,56.7,29.90,SE,136,4.0,17.0,64,0.27,,,0.02,Wunderground v.1.13,2013-05-10 05:40:00,
2013-05-10 01:45:00,69.1,57.7,29.91,SE,137,3.0,3.0,67,0.12,,,0.02,Wunderground v.1.13,2013-05-10 05:45:00,
2013-05-10 01:50:00,68.8,57.4,29.91,SE,128,1.0,1.0,67,0.06,,,0.02,Wunderground v.1.13,2013-05-10 05:50:00,
2013-05-10 01:55:00,68.6,57.2,29.91,SE,127,0.0,17.0,67,0.04,,,0.02,Wunderground v.1.13,2013-05-10 05:55:00,
2013-05-10 02:05:00,68.4,57.4,29.90,NNE,30,1.0,1.0,68,0.00,,,0.02,Wunderground v.1.13,2013-05-10 06:05:00,
2013-05-10 02:10:00,68.8,58.6,29.90,NNE,30,1.0,1.0,70,0.00,,,0.02,Wunderground v.1.13,2013-05-10 06:10:00,
2013-05-10 02:15:00,68.8,58.6,29.90,NNE,30,0.0,17.0,70,0.00,,,0.02,Wunderground v.1.13,2013-05-10 06:15:00,
2013-05-10 02:20:00,68.8,59.0,29.90,NNE,30,0.0,17.0,71,0.00,,,0.02,Wunderground v.1.13,2013-05-10 06:20:00,
2013-05-10 02:25:00,68.6,60.0,29.90,NE,37,0.0,17.0,74,0.00,,,0.02,Wunderground v.1.13,2013-05-10 06:25:00,
2013-05-10 02:30:00,68.3,58.9,29.90,NE,37,0.0,17.0,72,0.00,,,0.02,Wunderground v.1.13,2013-05-10 06:30:00,
2013-05-10 02:35:00,67.9,58.5,29.90,SE,124,0.0,17.0,72,0.00,,,0.02,Wunderground v.1.13,2013-05-10 06:35:00,
2013-05-10 02:40:00,67.8,58.4,29.90,East,83,1.0,17.0,72,0.00,,,0.02,Wunderground v.1.13,2013-05-10 06:40:00,
2013-05-10 02:50:00,67.8,58.1,29.89,East,90,1.0,1.0,71,0.00,,,0.02,Wunderground v.1.13,2013-05-10 06:50:00,
2013-05-10 02:55:00,67.6,57.9,29.89,East,97,1.0,1.0,71,0.00,,,0.02,Wunderground v.1.13,2013-05-10 06:55:00,
2013-05-10 03:00:00,67.6,58.2,29.88,East,96,1.0,1.0,72,0.00,,,0.02,Wunderground v.1.13,2013-05-10 07:00:00,
2013-05-10 03:05:00,67.4,57.7,29.88,East,82,0.0,17.0,71,0.00,,,0.02,Wunderground v.1.13,2013-05-10 07:05:00,
2013-05-10 03:10:00,67.4,58.1,29.88,East,83,0.0,17.0,72,0.00,,,0.02,Wunderground v.1.13,2013-05-10 07:10:00,
2013-05-10 03:15:00,67.1,57.8,29.88,East,85,0.0,17.0,72,0.00,,,0.02,Wunderground v.1.13,2013-05-10 07:15:00,
2013-05-10 03:20:00,66.9,58.0,29.88,East,85,0.0,17.0,73,0.00,,,0.02,Wunderground v.1.13,2013-05-10 07:20:00,
2013-05-10 03:25:00,66.4,57.9,29.88,East,93,1.0,1.0,74,0.00,,,0.02,Wunderground v.1.13,2013-05-10 07:25:00,
2013-05-10 03:30:00,66.3,58.1,29.88,East,92,1.0,1.0,75,0.00,,,0.02,Wunderground v.1.13,2013-05-10 07:30:00,
2013-05-10 03:40:00,66.0,58.2,29.88,East,92,0.0,17.0,76,0.00,,,0.02,Wunderground v.1.13,2013-05-10 07:40:00,
2013-05-10 03:45:00,66.0,58.6,29.88,East,92,0.0,17.0,77,0.00,,,0.02,Wunderground v.1.13,2013-05-10 07:45:00,
2013-05-10 03:50:00,65.6,58.2,29.88,East,92,0.0,17.0,77,0.00,,,0.02,Wunderground v.1.13,2013-05-10 07:50:00,
2013-05-10 03:55:00,65.6,58.2,29.88,East,92,0.0,17.0,77,0.00,,,0.02,Wunderground v.1.13,2013-05-10 07:55:00,
2013-05-10 04:00:00,65.5,58.1,29.88,East,92,0.0,17.0,77,0.00,,,0.02,Wunderground v.1.13,2013-05-10 08:00:00,
2013-05-10 04:10:00,65.3,58.6,29.88,East,92,0.0,17.0,79,0.00,,,0.02,Wunderground v.1.13,2013-05-10 08:10:00,
2013-05-10 04:15:00,65.3,59.0,29.88,NW,316,0.0,17.0,80,0.00,,,0.02,Wunderground v.1.13,2013-05-10 08:15:00,
2013-05-10 04:20:00,65.2,58.9,29.88,NW,316,0.0,17.0,80,0.00,,,0.02,Wunderground v.1.13,2013-05-10 08:20:00,
2013-05-10 04:25:00,65.0,58.7,29.88,NW,315,0.0,17.0,80,0.00,,,0.02,Wunderground v.1.13,2013-05-10 08:25:00,
2013-05-10 04:30:00,65.0,59.0,29.87,NW,316,0.0,17.0,81,0.00,,,0.02,Wunderground v.1.13,2013-05-10 08:30:00,
2013-05-10 04:35:00,65.0,59.0,29.87,NW,315,0.0,17.0,81,0.00,,,0.02,Wunderground v.1.13,2013-05-10 08:35:00,
2013-05-10 04:40:00,65.0,59.4,29.87,NW,311,0.0,17.0,82,0.00,,,0.02,Wunderground v.1.13,2013-05-10 08:40:00,
2013-05-10 04:45:00,64.7,59.1,29.88,NW,311,1.0,1.0,82,0.00,,,0.02,Wunderground v.1.13,2013-05-10 08:45:00,
2013-05-10 04:50:00,64.5,58.9,29.88,NW,311,0.0,17.0,82,0.00,,,0.02,Wunderground v.1.13,2013-05-10 08:50:00,
2013-05-10 04:55:00,64.5,58.9,29.88,NW,311,0.0,17.0,82,0.00,,,0.02,Wunderground v.1.13,2013-05-10 08:55:00,
2013-05-10 05:00:00,64.5,58.9,29.87,NW,311,0.0,17.0,82,0.00,,,0.02,Wunderground v.1.13,2013-05-10 09:00:00,
2013-05-10 05:05:00,64.5,58.9,29.87,NW,311,0.0,17.0,82,0.00,,,0.02,Wunderground v.1.13,2013-05-10 09:05:00,
2013-05-10 05:15:00,64.5,58.9,29.87,NW,311,0.0,17.0,82,0.00,,,0.02,Wunderground v.1.13,2013-05-10 09:15:00,
2013-05-10 05:20:00,64.5,58.9,29.87,NW,311,0.0,17.0,82,0.00,,,0.02,Wunderground v.1.13,2013-05-10 09:20:00,
2013-05-10 05:25:00,64.5,58.9,29.87,NW,311,0.0,17.0,82,0.00,,,0.02,Wunderground v.1.13,2013-05-10 09:25:00,
2013-05-10 05:30:00,64.5,58.5,29.87,WNW,301,0.0,17.0,81,0.00,,,0.02,Wunderground v.1.13,2013-05-10 09:30:00,
2013-05-10 05:35:00,64.5,58.5,29.87,NW,311,0.0,17.0,81,0.00,,,0.02,Wunderground v.1.13,2013-05-10 09:35:00,
2013-05-10 05:45:00,64.5,58.5,29.86,NW,311,0.0,17.0,81,0.00,,,0.02,Wunderground v.1.13,2013-05-10 09:45:00,
2013-05-10 05:50:00,64.5,58.9,29.86,NW,311,0.0,17.0,82,0.00,,,0.02,Wunderground v.1.13,2013-05-10 09:50:00,
2013-05-10 05:55:00,64.3,59.0,29.86,NW,311,0.0,17.0,83,0.00,,,0.02,Wunderground v.1.13,2013-05-10 09:55:00,
2013-05-10 06:00:00,64.2,58.9,29.87,West,264,0.0,17.0,83,0.00,,,0.02,Wunderground v.1.13,2013-05-10 10:00:00,
2013-05-10 06:05:00,64.0,59.1,29.87,WSW,251,0.0,17.0,84,0.00,,,0.02,Wunderground v.1.13,2013-05-10 10:05:00,
2013-05-10 06:10:00,63.9,59.0,29.87,WSW,237,0.0,17.0,84,0.00,,,0.02,Wunderground v.1.13,2013-05-10 10:10:00,
2013-05-10 06:20:00,63.7,58.8,29.87,East,99,0.0,17.0,84,0.00,,,0.02,Wunderground v.1.13,2013-05-10 10:20:00,
2013-05-10 06:25:00,63.7,58.4,29.87,East,99,0.0,17.0,83,0.00,,,0.02,Wunderground v.1.13,2013-05-10 10:25:00,
2013-05-10 06:30:00,63.7,58.4,29.87,East,99,0.0,17.0,83,0.00,,,0.02,Wunderground v.1.13,2013-05-10 10:30:00,
2013-05-10 06:35:00,63.7,58.8,29.87,East,99,0.0,17.0,84,0.00,,,0.02,Wunderground v.1.13,2013-05-10 10:35:00,
2013-05-10 06:40:00,63.7,59.1,29.87,West,281,0.0,17.0,85,0.00,,,0.02,Wunderground v.1.13,2013-05-10 10:40:00,
2013-05-10 06:45:00,63.5,58.9,29.87,West,278,0.0,17.0,85,0.00,,,0.02,Wunderground v.1.13,2013-05-10 10:45:00,
2013-05-10 06:50:00,63.5,58.9,29.87,West,278,0.0,17.0,85,0.00,,,0.02,Wunderground v.1.13,2013-05-10 10:50:00,
2013-05-10 06:55:00,63.4,59.1,29.87,West,277,0.0,17.0,86,0.00,,,0.02,Wunderground v.1.13,2013-05-10 10:55:00,
2013-05-10 07:05:00,63.4,58.8,29.88,South,185,0.0,17.0,85,0.00,,,0.02,Wunderground v.1.13,2013-05-10 11:05:00,
2013-05-10 07:10:00,63.2,58.9,29.88,SSE,168,0.0,17.0,86,0.00,,,0.02,Wunderground v.1.13,2013-05-10 11:10:00,
2013-05-10 07:15:00,63.2,58.3,29.88,East,99,0.0,17.0,84,0.00,,,0.02,Wunderground v.1.13,2013-05-10 11:15:00,
2013-05-10 07:20:00,63.5,58.2,29.88,East,88,1.0,1.0,83,0.00,,,0.02,Wunderground v.1.13,2013-05-10 11:20:00,
2013-05-10 07:25:00,63.7,58.1,29.88,East,97,1.0,1.0,82,0.00,,,0.02,Wunderground v.1.13,2013-05-10 11:25:00,
2013-05-10 07:30:00,63.9,58.0,29.87,ESE,123,0.0,17.0,81,0.00,,,0.02,Wunderground v.1.13,2013-05-10 11:30:00,
2013-05-10 07:35:00,64.0,58.1,29.87,NE,54,0.0,17.0,81,0.00,,,0.02,Wunderground v.1.13,2013-05-10 11:35:00,
2013-05-10 07:40:00,64.2,57.9,29.87,East,82,1.0,1.0,80,0.00,,,0.02,Wunderground v.1.13,2013-05-10 11:40:00,
2013-05-10 07:45:00,64.3,58.0,29.88,ENE,75,1.0,1.0,80,0.00,,,0.02,Wunderground v.1.13,2013-05-10 11:45:00,
2013-05-10 07:55:00,64.7,58.0,29.88,ENE,73,1.0,1.0,79,0.00,,,0.02,Wunderground v.1.13,2013-05-10 11:55:00,
2013-05-10 08:00:00,65.0,58.0,29.88,ENE,69,1.0,1.0,78,0.00,,,0.02,Wunderground v.1.13,2013-05-10 12:00:00,
2013-05-10 08:05:00,65.2,58.2,29.88,NNE,32,2.0,17.0,78,0.00,,,0.02,Wunderground v.1.13,2013-05-10 12:05:00,
2013-05-10 08:10:00,65.3,58.3,29.88,SE,133,1.0,1.0,78,0.00,,,0.03,Wunderground v.1.13,2013-05-10 12:10:00,
2013-05-10 08:15:00,65.5,58.1,29.87,East,86,1.0,17.0,77,0.00,,,0.03,Wunderground v.1.13,2013-05-10 12:15:00,
2013-05-10 08:25:00,65.6,58.2,29.87,NE,56,2.0,2.0,77,0.00,,,0.03,Wunderground v.1.13,2013-05-10 12:25:00,
2013-05-10 08:30:00,65.6,58.2,29.87,NNE,17,2.0,2.0,77,0.00,,,0.03,Wunderground v.1.13,2013-05-10 12:30:00,
2013-05-10 08:35:00,65.8,58.4,29.87,North,6,2.0,17.0,77,0.00,,,0.03,Wunderground v.1.13,2013-05-10 12:35:00,
2013-05-10 08:40:00,66.0,58.6,29.87,ENE,75,1.0,1.0,77,0.00,,,0.03,Wunderground v.1.13,2013-05-10 12:40:00,
2013-05-10 08:45:00,66.1,58.3,29.87,ENE,69,1.0,1.0,76,0.00,,,0.03,Wunderground v.1.13,2013-05-10 12:45:00,
2013-05-10 08:50:00,66.3,58.5,29.87,NNE,14,2.0,2.0,76,0.00,,,0.03,Wunderground v.1.13,2013-05-10 12:50:00,
2013-05-10 09:00:00,66.8,59.0,29.87,East,86,1.0,17.0,76,0.00,,,0.03,Wunderground v.1.13,2013-05-10 13:00:00,
2013-05-10 09:05:00,66.9,58.7,29.87,East,90,1.0,17.0,75,0.00,,,0.03,Wunderground v.1.13,2013-05-10 13:05:00,
2013-05-10 09:10:00,67.1,58.9,29.87,ENE,71,1.0,17.0,75,0.00,,,0.03,Wunderground v.1.13,2013-05-10 13:10:00,
2013-05-10 09:15:00,67.4,58.8,29.87,East,92,1.0,17.0,74,0.00,,,0.03,Wunderground v.1.13,2013-05-10 13:15:00,
2013-05-10 09:20:00,67.8,59.2,29.87,ENE,71,2.0,2.0,74,0.00,,,0.03,Wunderground v.1.13,2013-05-10 13:20:00,
2013-05-10 09:25:00,68.1,59.1,29.87,East,86,2.0,2.0,73,0.00,,,0.03,Wunderground v.1.13,2013-05-10 13:25:00,
2013-05-10 09:30:00,68.4,59.4,29.86,East,97,1.0,17.0,73,0.00,,,0.03,Wunderground v.1.13,2013-05-10 13:30:00,
2013-05-10 09:35:00,68.6,59.2,29.86,ESE,109,1.0,17.0,72,0.00,,,0.03,Wunderground v.1.13,2013-05-10 13:35:00,
2013-05-10 09:40:00,68.8,59.4,29.86,ESE,107,1.0,1.0,72,0.00,,,0.03,Wunderground v.1.13,2013-05-10 13:40:00,
2013-05-10 09:45:00,69.1,59.7,29.86,East,89,1.0,1.0,72,0.00,,,0.03,Wunderground v.1.13,2013-05-10 13:45:00,
2013-05-10 09:50:00,69.6,59.8,29.86,East,92,1.0,1.0,71,0.00,,,0.03,Wunderground v.1.13,2013-05-10 13:50:00,
2013-05-10 10:00:00,70.4,59.7,29.86,East,97,0.0,17.0,69,0.00,,,0.03,Wunderground v.1.13,2013-05-10 14:00:00,
2013-05-10 10:05:00,70.9,59.4,29.86,East,80,1.0,17.0,67,0.00,,,0.03,Wunderground v.1.13,2013-05-10 14:05:00,
2013-05-10 10:10:00,71.3,59.8,29.86,ENE,76,1.0,1.0,67,0.00,,,0.03,Wunderground v.1.13,2013-05-10 14:10:00,
2013-05-10 10:15:00,71.5,60.0,29.86,ESE,114,1.0,17.0,67,0.00,,,0.03,Wunderground v.1.13,2013-05-10 14:15:00,
2013-05-10 10:20:00,71.6,60.1,29.86,East,90,1.0,17.0,67,0.00,,,0.03,Wunderground v.1.13,2013-05-10 14:20:00,
2013-05-10 10:25:00,71.6,59.6,29.86,East,97,1.0,1.0,66,0.00,,,0.03,Wunderground v.1.13,2013-05-10 14:25:00,
2013-05-10 10:35:00,71.8,59.8,29.86,ESE,102,1.0,17.0,66,0.00,,,0.03,Wunderground v.1.13,2013-05-10 14:35:00,
2013-05-10 10:40:00,71.8,59.4,29.86,East,92,1.0,17.0,65,0.00,,,0.03,Wunderground v.1.13,2013-05-10 14:40:00,
2013-05-10 10:45:00,71.8,59.4,29.86,SSE,150,2.0,2.0,65,0.00,,,0.03,Wunderground v.1.13,2013-05-10 14:45:00,
2013-05-10 10:50:00,71.8,59.4,29.86,ESE,119,2.0,17.0,65,0.00,,,0.03,Wunderground v.1.13,2013-05-10 14:50:00,
2013-05-10 10:55:00,71.6,59.2,29.86,SE,128,4.0,4.0,65,0.00,,,0.03,Wunderground v.1.13,2013-05-10 14:55:00,
2013-05-10 11:00:00,71.5,59.5,29.87,East,88,4.0,17.0,66,0.00,,,0.03,Wunderground v.1.13,2013-05-10 15:00:00,
2013-05-10 11:05:00,71.3,60.2,29.87,ESE,109,3.0,3.0,68,0.00,,,0.03,Wunderground v.1.13,2013-05-10 15:05:00,
2013-05-10 11:10:00,71.1,60.0,29.87,East,89,2.0,17.0,68,0.00,,,0.03,Wunderground v.1.13,2013-05-10 15:10:00,
2013-05-10 11:20:00,71.1,60.0,29.87,East,95,1.0,17.0,68,0.00,,,0.03,Wunderground v.1.13,2013-05-10 15:20:00,
2013-05-10 11:25:00,71.3,59.4,29.87,ESE,109,1.0,17.0,66,0.00,,,0.03,Wunderground v.1.13,2013-05-10 15:25:00,
2013-05-10 11:30:00,71.5,59.5,29.86,ESE,113,1.0,1.0,66,0.00,,,0.03,Wunderground v.1.13,2013-05-10 15:30:00,
2013-05-10 11:35:00,71.6,60.1,29.86,East,99,1.0,1.0,67,0.00,,,0.03,Wunderground v.1.13,2013-05-10 15:35:00,
2013-05-10 11:40:00,71.8,60.2,29.86,East,79,1.0,17.0,67,0.00,,,0.03,Wunderground v.1.13,2013-05-10 15:40:00,
2013-05-10 11:45:00,71.8,59.8,29.86,ENE,75,1.0,17.0,66,0.00,,,0.03,Wunderground v.1.13,2013-05-10 15:45:00,
2013-05-10 11:50:00,71.8,59.8,29.86,NNE,24,2.0,17.0,66,0.00,,,0.03,Wunderground v.1.13,2013-05-10 15:50:00,
2013-05-10 11:55:00,71.5,60.4,29.86,ESE,104,3.0,17.0,68,0.00,,,0.03,Wunderground v.1.13,2013-05-10 15:55:00,
2013-05-10 12:00:00,70.3,61.6,29.88,ESE,117,6.0,17.0,74,0.38,,,0.10,Wunderground v.1.13,2013-05-10 16:00:00,
2013-05-10 12:10:00,65.8,59.1,29.88,North,0,13.0,13.0,79,0.56,,,0.15,Wunderground v.1.13,2013-05-10 16:10:00,
2013-05-10 12:15:00,65.0,59.4,29.89,East,92,10.0,17.0,82,0.18,,,0.16,Wunderground v.1.13,2013-05-10 16:15:00,
2013-05-10 12:20:00,64.5,59.6,29.89,East,99,8.0,8.0,84,0.14,,,0.17,Wunderground v.1.13,2013-05-10 16:20:00,
2013-05-10 12:25:00,64.5,59.9,29.89,East,80,8.0,17.0,85,0.26,,,0.19,Wunderground v.1.13,2013-05-10 16:25:00,
2013-05-10 12:30:00,64.3,60.0,29.89,ESE,107,8.0,17.0,86,0.31,,,0.21,Wunderground v.1.13,2013-05-10 16:30:00,
2013-05-10 12:40:00,64.3,60.0,29.89,East,96,6.0,6.0,86,0.18,,,0.23,Wunderground v.1.13,2013-05-10 16:40:00,
2013-05-10 12:45:00,64.5,60.2,29.89,SE,136,6.0,6.0,86,0.07,,,0.23,Wunderground v.1.13,2013-05-10 16:45:00,
2013-05-10 12:50:00,64.7,60.4,29.89,SSE,161,6.0,17.0,86,0.06,,,0.24,Wunderground v.1.13,2013-05-10 16:50:00,
2013-05-10 12:55:00,64.7,60.4,29.89,ESE,123,5.0,17.0,86,0.15,,,0.25,Wunderground v.1.13,2013-05-10 16:55:00,
2013-05-10 13:00:00,64.8,60.5,29.89,East,99,5.0,17.0,86,0.07,,,0.25,Wunderground v.1.13,2013-05-10 17:00:00,
2013-05-10 13:05:00,64.8,60.8,29.89,SE,138,5.0,17.0,87,0.05,,,0.26,Wunderground v.1.13,2013-05-10 17:05:00,
2013-05-10 13:15:00,65.0,61.0,29.89,ESE,106,4.0,4.0,87,0.09,,,0.27,Wunderground v.1.13,2013-05-10 17:15:00,
2013-05-10 13:20:00,65.0,61.0,29.89,East,93,3.0,17.0,87,0.05,,,0.27,Wunderground v.1.13,2013-05-10 17:20:00,
2013-05-10 13:25:00,65.2,61.2,29.89,SE,131,3.0,17.0,87,0.04,,,0.28,Wunderground v.1.13,2013-05-10 17:25:00,
2013-05-10 13:30:00,65.2,61.2,29.88,East,97,3.0,17.0,87,0.04,,,0.28,Wunderground v.1.13,2013-05-10 17:30:00,
2013-05-10 13:35:00,65.3,61.3,29.88,ESE,123,3.0,3.0,87,0.09,,,0.29,Wunderground v.1.13,2013-05-10 17:35:00,
2013-05-10 13:45:00,65.3,61.3,29.88,East,89,3.0,17.0,87,0.05,,,0.30,Wunderground v.1.13,2013-05-10 17:45:00,
2013-05-10 13:50:00,65.5,61.5,29.88,ESE,110,2.0,17.0,87,0.10,,,0.31,Wunderground v.1.13,2013-05-10 17:50:00,
2013-05-10 13:55:00,65.5,61.5,29.88,East,96,2.0,17.0,87,0.10,,,0.31,Wunderground v.1.13,2013-05-10 17:55:00,
2013-05-10 14:00:00,65.6,61.6,29.87,East,95,3.0,3.0,87,0.06,,,0.31,Wunderground v.1.13,2013-05-10 18:00:00,
2013-05-10 14:05:00,65.8,62.1,29.87,East,92,2.0,17.0,88,0.04,,,0.31,Wunderground v.1.13,2013-05-10 18:05:00,
2013-05-10 14:15:00,66.0,62.0,29.87,ESE,110,2.0,2.0,87,0.00,,,0.31,Wunderground v.1.13,2013-05-10 18:15:00,
2013-05-10 14:20:00,66.1,62.1,29.87,ESE,116,2.0,17.0,87,0.00,,,0.32,Wunderground v.1.13,2013-05-10 18:20:00,
2013-05-10 14:25:00,66.3,62.3,29.87,East,82,2.0,2.0,87,0.10,,,0.33,Wunderground v.1.13,2013-05-10 18:25:00,
2013-05-10 14:30:00,66.4,62.1,29.87,East,92,2.0,17.0,86,0.07,,,0.33,Wunderground v.1.13,2013-05-10 18:30:00,
2013-05-10 14:35:00,66.4,62.1,29.87,ESE,102,2.0,17.0,86,0.04,,,0.33,Wunderground v.1.13,2013-05-10 18:35:00,
2013-05-10 14:40:00,66.3,62.0,29.87,East,92,3.0,17.0,86,0.00,,,0.34,Wunderground v.1.13,2013-05-10 18:40:00,
2013-05-10 14:50:00,66.1,61.8,29.86,SE,127,4.0,17.0,86,0.07,,,0.35,Wunderground v.1.13,2013-05-10 18:50:00,
2013-05-10 14:55:00,66.0,61.7,29.86,ESE,107,4.0,17.0,86,0.46,,,0.37,Wunderground v.1.13,2013-05-10 18:55:00,
2013-05-10 15:00:00,66.0,62.0,29.86,ESE,113,3.0,3.0,87,0.71,,,0.41,Wunderground v.1.13,2013-05-10 19:00:00,
2013-05-10 15:05:00,66.0,62.0,29.86,ESE,116,2.0,17.0,87,0.23,,,0.43,Wunderground v.1.13,2013-05-10 19:05:00,
2013-05-10 15:10:00,66.0,62.0,29.86,ESE,119,2.0,17.0,87,0.12,,,0.44,Wunderground v.1.13,2013-05-10 19:10:00,
2013-05-10 15:15:00,66.0,62.0,29.86,SE,124,2.0,2.0,87,0.11,,,0.45,Wunderground v.1.13,2013-05-10 19:15:00,
2013-05-10 15:20:00,66.0,62.0,29.86,ESE,103,2.0,2.0,87,0.08,,,0.45,Wunderground v.1.13,2013-05-10 19:20:00,
2013-05-10 15:25:00,66.1,62.1,29.86,East,86,1.0,1.0,87,0.06,,,0.46,Wunderground v.1.13,2013-05-10 19:25:00,
2013-05-10 15:30:00,66.3,62.3,29.85,ESE,107,1.0,17.0,87,0.15,,,0.47,Wunderground v.1.13,2013-05-10 19:30:00,
2013-05-10 15:35:00,66.1,62.1,29.85,ESE,113,2.0,2.0,87,0.07,,,0.47,Wunderground v.1.13,2013-05-10 19:35:00,
2013-05-10 15:40:00,66.3,62.3,29.85,East,89,1.0,1.0,87,0.06,,,0.48,Wunderground v.1.13,2013-05-10 19:40:00,
2013-05-10 15:50:00,66.4,62.1,29.83,ENE,78,1.0,1.0,86,0.09,,,0.49,Wunderground v.1.13,2013-05-10 19:50:00,
2013-05-10 15:55:00,66.6,62.3,29.83,East,80,0.0,17.0,86,0.05,,,0.49,Wunderground v.1.13,2013-05-10 19:55:00,
2013-05-10 16:00:00,66.8,62.5,29.82,East,100,1.0,1.0,86,0.04,,,0.49,Wunderground v.1.13,2013-05-10 20:00:00,
2013-05-10 16:05:00,66.8,62.5,29.82,ENE,75,1.0,17.0,86,0.00,,,0.49,Wunderground v.1.13,2013-05-10 20:05:00,
2013-05-10 16:10:00,66.9,62.2,29.82,ESE,103,0.0,17.0,85,0.00,,,0.49,Wunderground v.1.13,2013-05-10 20:10:00,
2013-05-10 16:15:00,66.8,62.1,29.81,East,95,1.0,17.0,85,0.00,,,0.50,Wunderground v.1.13,2013-05-10 20:15:00,
2013-05-10 16:25:00,67.1,62.4,29.81,ENE,76,1.0,1.0,85,0.07,,,0.51,Wunderground v.1.13,2013-05-10 20:25:00,
2013-05-10 16:30:00,66.9,62.2,29.81,East,96,2.0,17.0,85,0.05,,,0.52,Wunderground v.1.13,2013-05-10 20:30:00,
2013-05-10 16:35:00,66.4,61.4,29.81,ESE,106,5.0,17.0,84,0.05,,,0.52,Wunderground v.1.13,2013-05-10 20:35:00,
2013-05-10 16:40:00,66.0,61.4,29.81,ESE,109,7.0,17.0,85,0.11,,,0.53,Wunderground v.1.13,2013-05-10 20:40:00,
2013-05-10 16:45:00,65.6,61.0,29.82,ENE,61,8.0,8.0,85,0.26,,,0.55,Wunderground v.1.13,2013-05-10 20:45:00,
2013-05-10 16:50:00,65.2,60.9,29.82,SE,128,8.0,17.0,86,0.38,,,0.60,Wunderground v.1.13,2013-05-10 20:50:00,
2013-05-10 16:55:00,65.0,60.7,29.82,SE,133,8.0,17.0,86,0.17,,,0.61,Wunderground v.1.13,2013-05-10 20:55:00,
2013-05-10 17:00:00,64.7,60.7,29.82,SE,127,8.0,8.0,87,0.15,,,0.63,Wunderground v.1.13,2013-05-10 21:00:00,
2013-05-10 17:05:00,64.5,60.5,29.82,ESE,116,8.0,8.0,87,0.10,,,0.63,Wunderground v.1.13,2013-05-10 21:05:00,
2013-05-10 17:10:00,64.5,60.5,29.82,SE,133,8.0,17.0,87,0.26,,,0.65,Wunderground v.1.13,2013-05-10 21:10:00,
2013-05-10 17:15:00,64.2,59.9,29.82,ENE,68,6.0,17.0,86,0.14,,,0.66,Wunderground v.1.13,2013-05-10 21:15:00,
2013-05-10 17:25:00,64.2,59.9,29.82,ESE,110,4.0,4.0,86,0.05,,,0.66,Wunderground v.1.13,2013-05-10 21:25:00,
2013-05-10 17:30:00,64.3,60.0,29.82,ESE,106,3.0,17.0,86,0.00,,,0.66,Wunderground v.1.13,2013-05-10 21:30:00,
2013-05-10 17:35:00,64.3,60.0,29.82,ESE,119,3.0,3.0,86,0.00,,,0.66,Wunderground v.1.13,2013-05-10 21:35:00,
2013-05-10 17:40:00,64.5,60.2,29.82,ESE,107,3.0,3.0,86,0.00,,,0.66,Wunderground v.1.13,2013-05-10 21:40:00,
2013-05-10 17:45:00,64.7,60.4,29.82,East,99,3.0,3.0,86,0.00,,,0.67,Wunderground v.1.13,2013-05-10 21:45:00,
2013-05-10 17:50:00,64.8,60.5,29.82,SE,134,2.0,17.0,86,0.00,,,0.67,Wunderground v.1.13,2013-05-10 21:50:00,
2013-05-10 18:00:00,65.0,60.7,29.82,ESE,107,1.0,17.0,86,0.00,,,0.67,Wunderground v.1.13,2013-05-10 22:00:00,
2013-05-10 18:05:00,65.0,60.7,29.82,SE,134,1.0,17.0,86,0.00,,,0.67,Wunderground v.1.13,2013-05-10 22:05:00,
2013-05-10 18:10:00,65.0,60.7,29.82,SE,130,1.0,17.0,86,0.00,,,0.67,Wunderground v.1.13,2013-05-10 22:10:00,
2013-05-10 18:15:00,65.2,60.9,29.82,SE,137,1.0,17.0,86,0.00,,,0.67,Wunderground v.1.13,2013-05-10 22:15:00,
2013-05-10 18:20:00,65.3,61.0,29.82,ESE,116,2.0,2.0,86,0.00,,,0.67,Wunderground v.1.13,2013-05-10 22:20:00,
2013-05-10 18:30:00,65.5,61.2,29.81,East,80,2.0,2.0,86,0.00,,,0.67,Wunderground v.1.13,2013-05-10 22:30:00,
2013-05-10 18:35:00,65.6,61.3,29.81,ESE,112,2.0,2.0,86,0.00,,,0.67,Wunderground v.1.13,2013-05-10 22:35:00,
2013-05-10 18:40:00,65.6,61.0,29.81,East,80,3.0,17.0,85,0.00,,,0.67,Wunderground v.1.13,2013-05-10 22:40:00,
2013-05-10 18:45:00,65.6,61.0,29.80,ESE,104,3.0,17.0,85,0.00,,,0.67,Wunderground v.1.13,2013-05-10 22:45:00,
2013-05-10 18:50:00,65.6,61.0,29.80,ESE,112,3.0,3.0,85,0.00,,,0.67,Wunderground v.1.13,2013-05-10 22:50:00,
2013-05-10 18:55:00,65.6,61.0,29.80,East,99,3.0,3.0,85,0.00,,,0.67,Wunderground v.1.13,2013-05-10 22:55:00,
2013-05-10 19:00:00,65.8,61.2,29.80,East,96,2.0,2.0,85,0.00,,,0.67,Wunderground v.1.13,2013-05-10 23:00:00,
2013-05-10 19:05:00,65.6,61.0,29.80,ESE,104,2.0,17.0,85,0.00,,,0.67,Wunderground v.1.13,2013-05-10 23:05:00,
2013-05-10 19:10:00,65.8,61.2,29.80,ESE,112,2.0,17.0,85,0.00,,,0.67,Wunderground v.1.13,2013-05-10 23:10:00,
2013-05-10 19:15:00,65.8,61.2,29.81,East,100,2.0,2.0,85,0.00,,,0.67,Wunderground v.1.13,2013-05-10 23:15:00,
2013-05-10 19:20:00,65.6,61.3,29.81,East,100,2.0,2.0,86,0.00,,,0.67,Wunderground v.1.13,2013-05-10 23:20:00,
2013-05-10 19:25:00,65.6,61.3,29.81,East,79,1.0,17.0,86,0.00,,,0.67,Wunderground v.1.13,2013-05-10 23:25:00,
2013-05-10 19:35:00,65.3,61.3,29.80,ESE,110,1.0,1.0,87,0.00,,,0.68,Wunderground v.1.13,2013-05-10 23:35:00,
2013-05-10 19:40:00,65.3,61.3,29.80,East,99,1.0,1.0,87,0.14,,,0.69,Wunderground v.1.13,2013-05-10 23:40:00,
2013-05-10 19:45:00,65.2,61.2,29.81,East,96,1.0,1.0,87,0.06,,,0.69,Wunderground v.1.13,2013-05-10 23:45:00,
2013-05-10 19:50:00,65.0,61.4,29.81,East,92,1.0,1.0,88,0.04,,,0.69,Wunderground v.1.13,2013-05-10 23:50:00,
2013-05-10 19:55:00,64.8,61.2,29.81,ESE,104,1.0,1.0,88,0.00,,,0.69,Wunderground v.1.13,2013-05-10 23:55:00,
2013-05-10 20:05:00,64.8,61.5,29.82,ESE,106,1.0,17.0,89,0.00,,,0.69,Wunderground v.1.13,2013-05-11 00:05:00,
2013-05-10 20:10:00,64.7,61.1,29.82,East,92,1.0,17.0,88,0.00,,,0.69,Wunderground v.1.13,2013-05-11 00:10:00,
2013-05-10 20:15:00,64.7,61.1,29.82,East,92,1.0,1.0,88,0.00,,,0.69,Wunderground v.1.13,2013-05-11 00:15:00,
2013-05-10 20:20:00,64.7,61.1,29.82,ESE,117,1.0,17.0,88,0.00,,,0.69,Wunderground v.1.13,2013-05-11 00:20:00,
2013-05-10 20:25:00,64.7,61.1,29.82,ESE,107,2.0,2.0,88,0.00,,,0.69,Wunderground v.1.13,2013-05-11 00:25:00,
2013-05-10 20:30:00,64.7,60.7,29.83,ESE,112,2.0,2.0,87,0.00,,,0.69,Wunderground v.1.13,2013-05-11 00:30:00,
2013-05-10 20:40:00,64.5,60.5,29.83,ESE,106,2.0,2.0,87,0.00,,,0.69,Wunderground v.1.13,2013-05-11 00:40:00,
2013-05-10 20:45:00,64.5,60.5,29.83,ESE,117,2.0,17.0,87,0.00,,,0.69,Wunderground v.1.13,2013-05-11 00:45:00,
2013-05-10 20:50:00,64.5,60.5,29.83,ESE,119,1.0,17.0,87,0.00,,,0.69,Wunderground v.1.13,2013-05-11 00:50:00,
2013-05-10 20:55:00,64.5,60.5,29.83,ESE,106,1.0,17.0,87,0.00,,,0.69,Wunderground v.1.13,2013-05-11 00:55:00,
2013-05-10 21:00:00,64.5,60.5,29.83,East,100,1.0,1.0,87,0.00,,,0.69,Wunderground v.1.13,2013-05-11 01:00:00,
2013-05-10 21:05:00,64.7,60.7,29.83,East,97,1.0,17.0,87,0.00,,,0.69,Wunderground v.1.13,2013-05-11 01:05:00,
2013-05-10 21:10:00,64.7,60.7,29.83,ENE,59,1.0,17.0,87,0.00,,,0.69,Wunderground v.1.13,2013-05-11 01:10:00,
2013-05-10 21:15:00,64.7,60.7,29.82,East,90,1.0,1.0,87,0.00,,,0.69,Wunderground v.1.13,2013-05-11 01:15:00,
2013-05-10 21:20:00,64.5,60.5,29.82,East,92,0.0,17.0,87,0.00,,,0.69,Wunderground v.1.13,2013-05-11 01:20:00,
2013-05-10 21:25:00,64.5,60.5,29.82,East,97,0.0,17.0,87,0.00,,,0.69,Wunderground v.1.13,2013-05-11 01:25:00,
2013-05-10 21:30:00,64.5,60.5,29.82,East,88,0.0,17.0,87,0.00,,,0.69,Wunderground v.1.13,2013-05-11 01:30:00,
2013-05-10 21:40:00,64.5,60.5,29.82,ESE,104,0.0,17.0,87,0.00,,,0.69,Wunderground v.1.13,2013-05-11 01:40:00,
2013-05-10 21:45:00,64.3,60.3,29.83,East,100,0.0,17.0,87,0.00,,,0.69,Wunderground v.1.13,2013-05-11 01:45:00,
2013-05-10 21:50:00,64.3,60.7,29.83,East,100,0.0,17.0,88,0.00,,,0.69,Wunderground v.1.13,2013-05-11 01:50:00,
2013-05-10 21:55:00,64.3,60.7,29.83,East,96,0.0,17.0,88,0.00,,,0.69,Wunderground v.1.13,2013-05-11 01:55:00,
2013-05-10 22:00:00,64.3,60.7,29.84,ESE,110,0.0,17.0,88,0.00,,,0.69,Wunderground v.1.13,2013-05-11 02:00:00,
2013-05-10 22:05:00,64.3,60.7,29.84,ESE,103,0.0,17.0,88,0.00,,,0.69,Wunderground v.1.13,2013-05-11 02:05:00,
2013-05-10 22:15:00,64.3,60.7,29.84,East,90,0.0,17.0,88,0.00,,,0.69,Wunderground v.1.13,2013-05-11 02:15:00,
2013-05-10 22:20:00,64.5,60.9,29.84,East,85,0.0,17.0,88,0.00,,,0.69,Wunderground v.1.13,2013-05-11 02:20:00,
2013-05-10 22:25:00,64.5,60.9,29.84,East,96,0.0,17.0,88,0.00,,,0.69,Wunderground v.1.13,2013-05-11 02:25:00,
2013-05-10 22:30:00,64.5,60.9,29.84,ESE,106,0.0,17.0,88,0.00,,,0.69,Wunderground v.1.13,2013-05-11 02:30:00,
2013-05-10 22:35:00,64.7,60.7,29.84,East,82,0.0,17.0,87,0.00,,,0.69,Wunderground v.1.13,2013-05-11 02:35:00,
2013-05-10 22:40:00,64.7,60.7,29.84,East,85,0.0,17.0,87,0.00,,,0.69,Wunderground v.1.13,2013-05-11 02:40:00,
2013-05-10 22:50:00,64.7,60.7,29.84,SSE,151,0.0,17.0,87,0.00,,,0.69,Wunderground v.1.13,2013-05-11 02:50:00,
2013-05-10 22:55:00,64.7,60.7,29.84,East,95,1.0,17.0,87,0.00,,,0.69,Wunderground v.1.13,2013-05-11 02:55:00,
2013-05-10 23:00:00,64.5,60.5,29.84,East,97,0.0,17.0,87,0.00,,,0.69,Wunderground v.1.13,2013-05-11 03:00:00,
2013-05-10 23:05:00,64.5,60.5,29.84,East,86,0.0,17.0,87,0.00,,,0.69,Wunderground v.1.13,2013-05-11 03:05:00,
2013-05-10 23:15:00,64.5,60.5,29.84,East,97,1.0,1.0,87,0.00,,,0.69,Wunderground v.1.13,2013-05-11 03:15:00,
2013-05-10 23:20:00,64.5,60.5,29.84,SE,143,1.0,1.0,87,0.00,,,0.69,Wunderground v.1.13,2013-05-11 03:20:00,
2013-05-10 23:25:00,64.5,60.5,29.84,ENE,78,0.0,17.0,87,0.00,,,0.69,Wunderground v.1.13,2013-05-11 03:25:00,
2013-05-10 23:30:00,64.5,60.5,29.84,East,80,1.0,17.0,87,0.00,,,0.69,Wunderground v.1.13,2013-05-11 03:30:00,
2013-05-10 23:35:00,64.5,60.5,29.84,ENE,75,1.0,17.0,87,0.00,,,0.69,Wunderground v.1.13,2013-05-11 03:35:00,
2013-05-10 23:40:00,64.5,60.5,29.84,East,79,1.0,1.0,87,0.00,,,0.69,Wunderground v.1.13,2013-05-11 03:40:00,
2013-05-10 23:45:00,64.5,60.5,29.83,East,96,0.0,17.0,87,0.00,,,0.69,Wunderground v.1.13,2013-05-11 03:45:00,
2013-05-10 23:50:00,64.5,60.5,29.83,ESE,106,0.0,17.0,87,0.00,,,0.69,Wunderground v.1.13,2013-05-11 03:50:00,
2013-05-10 23:55:00,64.3,60.3,29.83,ESE,104,0.0,17.0,87,0.00,,,0.69,Wunderground v.1.13,2013-05-11 03:55:00,